Time;durP1;ratioP1;P1;durP2;ratioP2;P2;SDS_P1;SDS_P2;PMS_P1;PMS_P2;Temp;Humidity;BMP_temperature;BMP_pressure;BME280_temperature;BME280_humidity;BME280_pressure;Samples;Min_cycle;Max_cycle;Signal;HPM_P1;HPM_P2
2022/06/12 00:04:18;;;;;;;2.08;1.27;;;17.70;99.90;;;;;;10287780;28;20567;-92
2022/06/12 00:09:21;;;;;;;2.72;1.90;;;17.70;99.90;;;;;;10267757;28;20065;-92
2022/06/12 00:14:23;;;;;;;2.53;1.63;;;17.60;99.90;;;;;;10283850;28;20109;-91
2022/06/12 00:19:25;;;;;;;2.83;1.48;;;17.60;99.90;;;;;;10286700;28;20059;-91
2022/06/12 00:24:28;;;;;;;4.55;1.50;;;17.70;99.90;;;;;;10286075;28;20043;-92
2022/06/12 00:29:33;;;;;;;3.70;1.83;;;17.50;99.90;;;;;;10278801;28;20043;-91
2022/06/12 00:34:48;;;;;;;3.80;1.48;;;17.40;99.90;;;;;;10292624;28;20064;-91
2022/06/12 00:39:52;;;;;;;2.05;1.38;;;17.40;99.90;;;;;;10263131;28;20720;-91
2022/06/12 00:44:57;;;;;;;1.30;1.20;;;17.30;99.90;;;;;;10299548;28;20046;-91
2022/06/12 00:50:05;;;;;;;6.72;1.30;;;17.30;99.90;;;;;;10292845;28;20579;-91
2022/06/12 00:55:31;;;;;;;4.57;1.67;;;17.20;99.90;;;;;;10292389;28;20516;-92
2022/06/12 01:00:34;;;;;;;6.82;1.45;;;17.20;99.90;;;;;;10276498;28;20085;-91
2022/06/12 01:11:00;;;;;;;3.67;1.67;;;17.10;99.90;;;;;;10272878;28;20559;-92
2022/06/12 01:16:15;;;;;;;2.63;1.58;;;17.10;99.90;;;;;;10286571;28;20137;-92
2022/06/12 01:21:42;;;;;;;1.50;1.40;;;17.00;99.90;;;;;;10266620;28;20493;-90
2022/06/12 01:27:13;;;;;;;2.78;1.25;;;17.00;99.90;;;;;;10269442;28;20133;-90
2022/06/12 01:32:25;;;;;;;4.70;1.40;;;17.00;99.90;;;;;;10275334;28;20067;-90
2022/06/12 01:37:47;;;;;;;2.15;1.08;;;17.00;99.90;;;;;;10277748;28;20023;-90
2022/06/12 01:42:54;;;;;;;2.65;1.10;;;17.00;99.90;;;;;;10277799;28;20481;-91
2022/06/12 01:48:34;;;;;;;2.53;1.20;;;17.00;99.90;;;;;;10278034;28;20071;-90
2022/06/12 01:53:45;;;;;;;4.18;1.40;;;17.00;99.90;;;;;;10258472;28;20055;-90
2022/06/12 01:59:15;;;;;;;2.92;1.40;;;16.90;99.90;;;;;;10282153;28;20063;-89
2022/06/12 02:04:26;;;;;;;4.28;1.25;;;16.90;99.90;;;;;;10301455;28;20057;-89
2022/06/12 02:09:50;;;;;;;5.38;3.08;;;16.80;99.90;;;;;;10295380;28;20047;-90
2022/06/12 02:15:12;;;;;;;3.72;2.03;;;16.60;99.90;;;;;;10300107;28;20129;-90
2022/06/12 02:20:18;;;;;;;3.30;1.83;;;16.60;99.90;;;;;;10295823;28;20066;-90
2022/06/12 02:25:25;;;;;;;3.47;1.60;;;16.60;99.90;;;;;;10294721;28;20532;-90
2022/06/12 02:30:40;;;;;;;4.93;1.35;;;16.50;99.90;;;;;;10299253;28;20066;-90
2022/06/12 02:35:47;;;;;;;10.10;1.40;;;16.40;99.90;;;;;;10293860;28;20063;-88
2022/06/12 02:40:55;;;;;;;2.78;1.38;;;16.40;99.90;;;;;;10290298;28;20476;-89
2022/06/12 02:46:06;;;;;;;3.83;1.25;;;16.30;99.90;;;;;;10292938;28;20047;-92
2022/06/12 02:51:23;;;;;;;3.50;1.63;;;16.30;99.90;;;;;;10299427;28;20068;-90
2022/06/12 02:56:54;;;;;;;3.33;1.23;;;16.10;99.90;;;;;;10310236;28;20078;-90
2022/06/12 03:02:12;;;;;;;3.28;1.52;;;16.10;99.90;;;;;;10306562;28;20062;-89
2022/06/12 03:07:15;;;;;;;2.85;1.75;;;16.00;99.90;;;;;;10307252;28;20057;-89
2022/06/12 03:12:17;;;;;;;4.38;1.50;;;16.00;99.90;;;;;;10322693;28;20102;-89
2022/06/12 03:17:19;;;;;;;2.00;1.35;;;15.90;99.90;;;;;;10313077;28;20052;-87
2022/06/12 03:22:41;;;;;;;4.65;1.45;;;15.90;99.90;;;;;;10335777;28;20468;-87
2022/06/12 03:27:55;;;;;;;1.88;1.25;;;15.80;99.90;;;;;;10331256;28;20077;-87
2022/06/12 03:33:07;;;;;;;6.80;1.63;;;15.80;99.90;;;;;;10315236;28;20066;-87
2022/06/12 03:38:24;;;;;;;4.90;1.60;;;15.80;99.90;;;;;;10339264;28;20061;-87
2022/06/12 03:43:35;;;;;;;4.70;1.57;;;15.70;99.90;;;;;;10323443;28;20508;-87
2022/06/12 03:49:01;;;;;;;3.65;1.73;;;15.70;99.90;;;;;;10332633;28;20042;-87
2022/06/12 03:54:18;;;;;;;5.75;1.42;;;15.50;99.90;;;;;;10312119;28;20172;-87
2022/06/12 03:59:35;;;;;;;3.25;1.38;;;15.60;99.90;;;;;;10317620;28;20484;-87
2022/06/12 04:04:40;;;;;;;6.55;1.10;;;15.60;99.90;;;;;;10329522;28;20056;-87
2022/06/12 04:09:46;;;;;;;3.38;1.60;;;15.60;99.90;;;;;;10318854;28;20097;-87
2022/06/12 04:15:00;;;;;;;3.03;1.25;;;15.60;99.90;;;;;;10334261;28;20129;-87
2022/06/12 04:20:05;;;;;;;6.65;1.40;;;15.80;99.90;;;;;;10321264;28;20045;-87
2022/06/12 04:25:27;;;;;;;2.95;1.17;;;15.90;99.90;;;;;;10307185;28;20429;-87
2022/06/12 04:30:36;;;;;;;2.35;1.63;;;16.00;99.90;;;;;;10300677;28;20463;-88
2022/06/12 04:35:45;;;;;;;3.65;1.45;;;16.10;99.90;;;;;;10293218;28;20052;-87
2022/06/12 04:40:47;;;;;;;9.43;1.75;;;16.20;99.90;;;;;;10321461;28;20221;-87
2022/06/12 04:45:49;;;;;;;4.75;1.50;;;16.40;99.90;;;;;;10301429;28;20069;-87
2022/06/12 04:50:51;;;;;;;2.03;1.33;;;16.50;99.90;;;;;;10334913;28;20405;-87
2022/06/12 04:55:54;;;;;;;6.78;2.13;;;16.70;99.90;;;;;;10307248;28;20522;-87
2022/06/12 05:00:56;;;;;;;3.45;1.92;;;16.90;99.90;;;;;;10294492;28;20100;-87
2022/06/12 05:05:58;;;;;;;9.63;2.13;;;17.00;99.90;;;;;;10328024;28;20057;-87
2022/06/12 05:11:01;;;;;;;2.47;1.67;;;17.10;99.90;;;;;;10310087;28;20060;-87
2022/06/12 05:16:03;;;;;;;5.32;1.77;;;17.20;99.90;;;;;;10303696;28;20053;-87
2022/06/12 05:21:05;;;;;;;3.78;2.17;;;17.30;99.90;;;;;;10294911;28;20038;-88
2022/06/12 05:26:07;;;;;;;4.00;1.55;;;17.40;99.90;;;;;;10287526;28;20141;-88
2022/06/12 05:31:08;;;;;;;2.63;1.60;;;17.50;99.90;;;;;;10320779;28;20050;-88
2022/06/12 05:36:14;;;;;;;8.88;2.00;;;17.60;99.90;;;;;;10300532;28;20943;-88
2022/06/12 05:41:16;;;;;;;3.75;1.83;;;17.80;99.90;;;;;;10317447;28;20121;-89
2022/06/12 05:46:18;;;;;;;5.05;1.20;;;17.90;99.90;;;;;;10304687;28;20485;-89
2022/06/12 05:51:21;;;;;;;3.45;1.55;;;18.10;99.90;;;;;;10316197;28;20123;-90
2022/06/12 05:56:25;;;;;;;2.28;1.50;;;18.20;99.90;;;;;;10304391;28;20555;-91
2022/06/12 06:01:27;;;;;;;2.88;1.17;;;18.40;99.90;;;;;;10306510;28;20137;-89
2022/06/12 06:06:51;;;;;;;3.67;1.42;;;18.50;99.90;;;;;;10310438;28;20046;-89
2022/06/12 06:11:54;;;;;;;4.70;1.20;;;18.70;99.90;;;;;;10304859;28;20053;-90
2022/06/12 06:16:55;;;;;;;3.75;1.45;;;18.80;99.90;;;;;;10308701;28;20132;-89
2022/06/12 06:21:57;;;;;;;4.47;1.30;;;18.90;99.90;;;;;;10323899;28;20084;-89
2022/06/12 06:26:59;;;;;;;5.80;1.38;;;19.10;99.90;;;;;;10290529;28;20367;-88
2022/06/12 06:32:02;;;;;;;1.60;1.10;;;19.20;99.90;;;;;;10301772;28;20046;-86
2022/06/12 06:37:06;;;;;;;4.78;1.10;;;19.30;99.90;;;;;;10297432;28;20132;-87
2022/06/12 06:42:10;;;;;;;1.83;1.08;;;19.50;99.90;;;;;;10327414;28;20069;-87
2022/06/12 06:47:12;;;;;;;3.08;1.10;;;19.70;99.90;;;;;;10335624;28;20050;-87
2022/06/12 06:52:14;;;;;;;3.67;1.10;;;20.00;99.90;;;;;;10312347;28;20054;-88
2022/06/12 06:57:16;;;;;;;1.20;1.00;;;20.20;99.90;;;;;;10299329;28;20141;-88
2022/06/12 07:02:19;;;;;;;3.13;0.80;;;20.40;99.90;;;;;;10313662;28;20063;-92
2022/06/12 07:07:21;;;;;;;3.70;0.90;;;20.60;99.90;;;;;;10322814;28;20058;-87
2022/06/12 07:12:22;;;;;;;2.10;0.80;;;20.70;99.90;;;;;;10325365;28;20073;-91
2022/06/12 07:17:24;;;;;;;3.25;0.90;;;21.00;99.90;;;;;;10334221;28;20054;-87
2022/06/12 07:22:26;;;;;;;3.50;0.95;;;21.20;99.90;;;;;;10308220;28;20090;-88
2022/06/12 07:27:28;;;;;;;4.32;0.65;;;21.40;99.90;;;;;;10310775;28;20058;-88
2022/06/12 07:32:30;;;;;;;2.88;0.60;;;21.50;99.90;;;;;;10325014;28;20058;-87
2022/06/12 07:37:34;;;;;;;0.95;0.35;;;21.80;99.90;;;;;;10306709;28;20042;-88
2022/06/12 07:42:36;;;;;;;1.85;0.50;;;21.90;99.90;;;;;;10307369;28;20057;-89
2022/06/12 07:47:38;;;;;;;4.93;0.45;;;22.00;99.90;;;;;;10306196;28;20047;-91
2022/06/12 07:52:41;;;;;;;2.75;0.60;;;22.30;99.90;;;;;;10237654;28;20516;-92
2022/06/12 07:57:57;;;;;;;;;;;;;;;;;;;;;
2022/06/12 08:03:02;;;;;;;3.03;0.40;;;22.60;99.90;;;;;;10308213;28;20042;-90
2022/06/12 08:08:04;;;;;;;1.90;0.50;;;22.70;98.90;;;;;;10324414;28;20050;-90
2022/06/12 08:13:10;;;;;;;3.85;0.50;;;22.80;98.50;;;;;;10323892;28;20074;-90
2022/06/12 08:18:13;;;;;;;4.03;0.60;;;22.90;97.30;;;;;;10310602;28;22829;-90
2022/06/12 08:23:26;;;;;;;2.22;0.40;;;23.30;97.40;;;;;;10288586;28;20042;-91
2022/06/12 08:28:31;;;;;;;1.27;0.50;;;23.30;96.50;;;;;;10317070;28;20047;-90
2022/06/12 08:33:37;;;;;;;0.90;0.40;;;23.50;95.70;;;;;;10308713;28;20042;-90
2022/06/12 08:38:39;;;;;;;3.20;0.40;;;23.80;94.30;;;;;;10290364;28;20057;-90
2022/06/12 08:43:43;;;;;;;1.42;0.70;;;23.70;93.10;;;;;;10302325;28;20114;-90
2022/06/12 08:48:59;;;;;;;1.00;0.40;;;24.10;92.80;;;;;;10286550;28;20440;-91
2022/06/12 08:54:12;;;;;;;3.65;0.43;;;24.20;91.70;;;;;;10314563;28;20053;-90
2022/06/12 08:59:34;;;;;;;1.67;0.38;;;24.50;91.40;;;;;;10282931;28;20042;-91
2022/06/12 09:04:36;;;;;;;1.67;0.47;;;24.80;90.80;;;;;;10322477;28;20667;-90
2022/06/12 09:09:47;;;;;;;2.47;0.70;;;24.80;90.00;;;;;;10306245;28;20070;-90
2022/06/12 09:15:22;;;;;;;2.83;0.40;;;25.00;88.70;;;;;;10308231;28;20050;-90
2022/06/12 09:20:51;;;;;;;2.08;0.40;;;25.10;86.60;;;;;;10311300;28;20052;-87
2022/06/12 09:26:07;;;;;;;1.90;0.40;;;25.30;86.90;;;;;;10320216;28;20062;-87
2022/06/12 09:31:14;;;;;;;6.22;0.30;;;25.40;85.80;;;;;;10304688;28;20448;-88
2022/06/12 09:36:42;;;;;;;2.25;0.28;;;25.70;80.60;;;;;;10314804;28;20047;-88
2022/06/12 09:41:56;;;;;;;1.90;0.40;;;26.00;82.60;;;;;;10308078;28;20377;-89
2022/06/12 09:47:41;;;;;;;4.00;0.30;;;26.00;84.30;;;;;;10308306;28;20074;-90
2022/06/12 09:52:50;;;;;;;1.60;0.30;;;26.20;81.00;;;;;;10297398;28;20060;-90
2022/06/12 09:58:14;;;;;;;4.00;0.40;;;26.20;80.60;;;;;;10316915;28;20050;-90
2022/06/12 10:03:23;;;;;;;4.25;0.40;;;26.50;80.80;;;;;;10301028;28;20038;-90
2022/06/12 10:08:31;;;;;;;3.13;0.47;;;26.50;79.20;;;;;;10347135;23;20133;-65
2022/06/12 10:13:38;;;;;;;1.98;0.40;;;26.50;79.40;;;;;;10316778;28;20112;-65
2022/06/12 10:18:46;;;;;;;1.48;0.35;;;26.60;77.00;;;;;;10316004;28;20078;-65
2022/06/12 10:23:49;;;;;;;1.73;0.30;;;26.50;74.60;;;;;;10316627;28;20050;-66
2022/06/12 10:29:06;;;;;;;1.77;0.40;;;26.40;74.70;;;;;;10315015;28;20042;-64
2022/06/12 10:34:16;;;;;;;4.10;0.30;;;26.50;72.90;;;;;;10314315;28;20456;-65
2022/06/12 10:39:21;;;;;;;1.35;0.30;;;26.10;72.90;;;;;;10316861;28;20061;-66
2022/06/12 10:44:42;;;;;;;2.70;0.30;;;26.30;74.00;;;;;;10312102;28;20085;-65
2022/06/12 10:49:44;;;;;;;1.63;0.30;;;26.60;72.00;;;;;;10313334;28;20051;-64
2022/06/12 10:54:48;;;;;;;1.85;0.22;;;26.50;73.00;;;;;;10315390;28;20046;-65
2022/06/12 11:00:07;;;;;;;1.15;0.30;;;25.80;69.10;;;;;;10314262;28;20053;-64
2022/06/12 11:05:32;;;;;;;3.67;0.50;;;26.10;68.20;;;;;;10313263;28;20047;-65
2022/06/12 11:10:57;;;;;;;3.45;0.30;;;26.20;70.20;;;;;;10311968;28;20051;-65
2022/06/12 11:16:31;;;;;;;1.13;0.30;;;26.70;68.50;;;;;;10289910;28;20046;-65
2022/06/12 11:21:55;;;;;;;2.50;0.40;;;26.90;67.80;;;;;;10315911;28;20069;-63
2022/06/12 11:27:17;;;;;;;2.47;0.30;;;26.50;68.80;;;;;;10311719;28;20041;-63
2022/06/12 11:32:36;;;;;;;2.50;0.40;;;26.40;69.20;;;;;;10299280;28;20038;-63
2022/06/12 11:38:07;;;;;;;2.40;0.30;;;26.90;69.80;;;;;;10293115;28;20602;-63
2022/06/12 11:43:25;;;;;;;0.65;0.30;;;27.30;66.00;;;;;;10275153;28;20054;-63
2022/06/12 11:49:03;;;;;;;1.02;0.50;;;27.30;66.10;;;;;;10310139;28;20049;-63
2022/06/12 11:54:14;;;;;;;2.50;0.20;;;27.30;62.80;;;;;;10311779;28;20053;-63
2022/06/12 11:59:32;;;;;;;3.80;0.30;;;27.00;62.90;;;;;;10310388;28;20078;-62
2022/06/12 12:05:03;;;;;;;1.55;0.20;;;27.50;63.50;;;;;;10310722;28;20046;-62
2022/06/12 12:10:20;;;;;;;1.33;0.30;;;27.20;63.00;;;;;;10312248;28;20050;-64
2022/06/12 12:15:29;;;;;;;0.40;0.20;;;27.40;60.90;;;;;;10309649;28;20058;-63
2022/06/12 12:20:40;;;;;;;0.68;0.20;;;27.90;59.40;;;;;;10309524;28;20042;-63
2022/06/12 12:25:50;;;;;;;1.20;0.28;;;28.20;57.10;;;;;;10312014;28;20057;-63
2022/06/12 12:30:57;;;;;;;0.40;0.20;;;28.30;56.30;;;;;;10309281;28;20054;-63
2022/06/12 12:41:38;;;;;;;2.63;0.20;;;28.50;56.10;;;;;;10308484;28;20046;-63
2022/06/12 12:46:47;;;;;;;1.77;0.25;;;28.40;55.00;;;;;;10307727;28;20046;-62
2022/06/12 12:51:50;;;;;;;0.50;0.22;;;28.40;55.90;;;;;;10308044;28;20058;-65
2022/06/12 12:57:01;;;;;;;2.13;0.40;;;28.60;56.60;;;;;;10308054;28;20097;-64
2022/06/12 13:02:17;;;;;;;1.77;0.20;;;28.70;56.20;;;;;;10307008;28;20046;-62
2022/06/12 13:07:43;;;;;;;2.63;0.50;;;28.40;54.80;;;;;;10307416;28;20500;-63
2022/06/12 13:13:09;;;;;;;1.23;0.30;;;28.10;55.90;;;;;;10308067;28;20061;-63
2022/06/12 13:18:38;;;;;;;1.70;0.30;;;28.50;55.60;;;;;;10287967;28;20061;-63
2022/06/12 13:23:59;;;;;;;1.30;0.43;;;28.70;54.70;;;;;;10306118;28;20042;-63
2022/06/12 13:29:02;;;;;;;1.67;0.20;;;28.80;55.00;;;;;;10307936;28;20046;-63
2022/06/12 13:34:04;;;;;;;1.00;0.32;;;29.20;54.70;;;;;;10305893;28;20113;-63
2022/06/12 13:39:35;;;;;;;2.22;0.20;;;29.10;52.60;;;;;;10306167;28;20812;-63
2022/06/12 13:44:40;;;;;;;0.43;0.25;;;29.30;53.00;;;;;;10305857;28;20042;-63
2022/06/12 13:49:48;;;;;;;1.00;0.30;;;29.80;50.80;;;;;;10308466;28;20042;-64
2022/06/12 13:54:50;;;;;;;0.90;0.30;;;30.20;52.60;;;;;;10315771;28;20058;-65
2022/06/12 13:59:52;;;;;;;0.20;0.10;;;30.40;51.00;;;;;;10315173;28;20058;-68
2022/06/12 14:05:00;;;;;;;1.17;0.40;;;30.70;48.90;;;;;;10312755;28;20054;-66
2022/06/12 14:10:09;;;;;;;0.75;0.10;;;30.00;47.80;;;;;;10311045;28;20050;-65
2022/06/12 14:15:39;;;;;;;2.58;0.30;;;29.90;48.70;;;;;;10314089;28;20378;-66
2022/06/12 14:20:41;;;;;;;1.42;0.30;;;30.20;48.40;;;;;;10310574;28;20054;-68
2022/06/12 14:25:53;;;;;;;1.40;0.20;;;30.40;50.20;;;;;;10315719;28;20493;-70
2022/06/12 14:31:25;;;;;;;1.13;0.40;;;30.60;46.20;;;;;;10311479;28;20097;-68
2022/06/12 14:36:37;;;;;;;3.45;0.20;;;31.20;47.30;;;;;;10310869;28;20624;-65
2022/06/12 14:41:51;;;;;;;0.88;0.20;;;31.10;44.50;;;;;;10312447;28;20521;-67
2022/06/12 14:46:54;;;;;;;2.40;0.27;;;31.70;44.50;;;;;;10296709;28;20050;-66
2022/06/12 14:51:56;;;;;;;1.08;0.10;;;31.80;42.70;;;;;;10310090;28;20058;-63
2022/06/12 14:56:58;;;;;;;0.65;0.20;;;31.30;41.40;;;;;;10310341;28;20046;-65
2022/06/12 15:01:59;;;;;;;0.80;0.10;;;31.40;43.70;;;;;;10295851;28;20096;-67
2022/06/12 15:07:01;;;;;;;0.17;0.10;;;30.90;41.60;;;;;;10308518;28;20054;-66
2022/06/12 15:12:03;;;;;;;0.50;0.20;;;30.80;42.00;;;;;;10311518;28;20050;-66
2022/06/12 15:17:06;;;;;;;0.20;0.10;;;31.00;43.20;;;;;;10313266;28;20112;-66
2022/06/12 15:22:14;;;;;;;0.52;0.20;;;31.50;43.50;;;;;;10308168;28;20072;-66
2022/06/12 15:32:56;;;;;;;0.30;0.10;;;31.80;45.70;;;;;;10261262;28;20046;-65
2022/06/12 15:37:58;;;;;;;0.40;0.10;;;32.10;46.20;;;;;;10278990;28;21008;-66
2022/06/12 15:43:00;;;;;;;1.65;0.20;;;31.70;43.60;;;;;;10310461;28;20085;-67
2022/06/12 15:48:02;;;;;;;0.98;0.20;;;31.40;42.00;;;;;;10309725;28;20105;-66
2022/06/12 15:53:04;;;;;;;2.15;0.30;;;30.80;42.30;;;;;;10307923;28;20051;-66
2022/06/12 15:58:06;;;;;;;2.38;0.20;;;30.90;42.60;;;;;;10309751;28;20042;-67
2022/06/12 16:03:10;;;;;;;0.50;0.20;;;31.10;43.60;;;;;;10309445;28;20042;-68
2022/06/12 16:08:12;;;;;;;0.40;0.13;;;30.90;42.50;;;;;;10292401;28;20475;-67
2022/06/12 16:13:15;;;;;;;2.58;0.40;;;31.00;42.90;;;;;;10358364;22;20108;-88
2022/06/12 16:18:21;;;;;;;1.30;0.20;;;30.50;43.20;;;;;;10333337;28;20046;-88
2022/06/12 16:23:23;;;;;;;0.17;0.10;;;30.30;43.50;;;;;;10335072;28;20064;-87
2022/06/12 16:28:25;;;;;;;1.63;0.20;;;30.70;42.90;;;;;;10332425;28;20050;-88
2022/06/12 16:33:27;;;;;;;1.27;0.10;;;31.10;43.20;;;;;;10346396;28;20480;-90
2022/06/12 16:38:29;;;;;;;2.05;0.20;;;31.30;42.00;;;;;;10343540;28;20128;-86
2022/06/12 16:43:31;;;;;;;2.75;0.20;;;31.00;44.30;;;;;;10347664;28;20042;-86
2022/06/12 16:48:33;;;;;;;0.80;0.20;;;31.40;45.30;;;;;;10320911;28;20868;-86
2022/06/12 16:53:35;;;;;;;2.03;0.20;;;30.70;46.20;;;;;;10346197;28;20054;-87
2022/06/12 16:58:37;;;;;;;1.60;0.15;;;30.50;47.10;;;;;;10325160;28;20053;-86
2022/06/12 17:03:39;;;;;;;2.65;0.20;;;30.80;47.00;;;;;;10343837;28;20064;-86
2022/06/12 17:08:40;;;;;;;2.38;0.20;;;31.40;46.90;;;;;;10350891;28;20976;-86
2022/06/12 17:13:42;;;;;;;3.53;0.28;;;31.30;46.70;;;;;;10341514;28;20317;-88
2022/06/12 17:24:08;;;;;;;1.65;0.20;;;31.70;46.40;;;;;;10346186;28;20042;-88
2022/06/12 17:29:10;;;;;;;0.90;0.20;;;31.90;46.60;;;;;;10348089;28;20054;-89
2022/06/12 17:34:12;;;;;;;0.45;0.20;;;31.30;47.30;;;;;;10336471;28;20065;-88
2022/06/12 17:39:14;;;;;;;1.67;0.20;;;31.30;47.40;;;;;;10349195;28;20057;-88
2022/06/12 17:44:19;;;;;;;1.02;0.20;;;31.10;47.80;;;;;;10343730;28;20065;-87
2022/06/12 17:49:21;;;;;;;0.98;0.20;;;30.80;48.90;;;;;;10343570;28;20111;-88
2022/06/12 17:54:22;;;;;;;1.38;0.20;;;30.90;48.90;;;;;;10344642;28;20050;-87
2022/06/12 17:59:24;;;;;;;1.52;0.43;;;30.90;49.00;;;;;;10339387;28;20057;-86
2022/06/12 18:04:26;;;;;;;0.73;0.20;;;30.60;49.70;;;;;;10347654;28;20411;-87
2022/06/12 18:09:29;;;;;;;1.85;0.20;;;30.40;48.90;;;;;;10321763;28;20049;-88
2022/06/12 18:19:52;;;;;;;0.90;0.20;;;28.40;51.00;;;;;;10345971;28;20052;-86
2022/06/12 18:24:54;;;;;;;1.42;0.20;;;28.10;52.20;;;;;;10343847;28;20041;-87
2022/06/12 18:29:56;;;;;;;4.88;0.40;;;27.50;53.70;;;;;;10344900;28;20053;-86
2022/06/12 18:34:58;;;;;;;2.40;0.20;;;27.00;54.00;;;;;;10366806;28;20133;-86
2022/06/12 18:40:00;;;;;;;1.35;0.20;;;26.60;54.70;;;;;;10359626;28;20067;-86
2022/06/12 18:45:03;;;;;;;2.08;0.10;;;26.30;55.60;;;;;;10354514;28;20041;-86
2022/06/12 18:50:06;;;;;;;0.57;0.20;;;25.80;55.90;;;;;;10353218;28;20050;-86
2022/06/12 18:55:09;;;;;;;4.75;0.20;;;25.60;56.30;;;;;;10357510;28;20058;-86
2022/06/12 19:00:15;;;;;;;0.90;0.10;;;25.30;56.60;;;;;;10352819;28;20049;-88
2022/06/12 19:05:17;;;;;;;1.05;0.20;;;25.00;57.30;;;;;;10351407;28;20045;-86
2022/06/12 19:10:19;;;;;;;1.92;0.13;;;24.70;57.60;;;;;;10363602;28;20049;-86
2022/06/12 19:15:22;;;;;;;3.00;0.30;;;24.60;58.20;;;;;;10344680;28;20046;-87
2022/06/12 19:20:24;;;;;;;1.17;0.25;;;24.30;57.70;;;;;;10363283;28;20046;-86
2022/06/12 19:25:27;;;;;;;0.88;0.10;;;24.10;57.90;;;;;;10338345;28;20049;-86
2022/06/12 19:30:30;;;;;;;1.13;0.25;;;24.00;57.40;;;;;;10344496;28;20476;-86
2022/06/12 19:35:32;;;;;;;1.35;0.15;;;23.80;57.50;;;;;;10365414;28;20081;-88
2022/06/12 19:40:34;;;;;;;0.10;0.10;;;23.60;57.40;;;;;;10366204;28;20054;-88
2022/06/12 19:45:39;;;;;;;1.20;0.10;;;23.50;58.00;;;;;;10347086;28;20084;-89
2022/06/12 19:50:41;;;;;;;0.75;0.17;;;23.40;59.50;;;;;;10351604;28;20507;-89
2022/06/12 19:55:43;;;;;;;1.45;0.20;;;23.30;59.80;;;;;;10369138;28;20083;-88
2022/06/12 20:00:46;;;;;;;1.77;0.10;;;23.10;58.90;;;;;;10342687;28;20057;-91
2022/06/12 20:11:26;;;;;;;4.57;0.80;;;22.80;58.80;;;;;;10332621;28;20056;-89
2022/06/12 20:16:29;;;;;;;0.45;0.10;;;22.60;58.20;;;;;;10335079;28;20068;-88
2022/06/12 20:21:31;;;;;;;1.13;0.13;;;22.50;59.60;;;;;;10346534;28;20057;-89
2022/06/12 20:26:33;;;;;;;2.97;0.20;;;22.40;59.60;;;;;;10347773;28;20049;-89
2022/06/12 20:31:35;;;;;;;1.95;0.25;;;22.30;61.10;;;;;;10342760;28;20554;-89
2022/06/12 20:36:38;;;;;;;3.40;0.22;;;22.10;61.20;;;;;;10340107;28;20046;-90
2022/06/12 20:41:40;;;;;;;2.42;0.20;;;22.00;61.60;;;;;;10346855;28;20056;-87
2022/06/12 20:46:47;;;;;;;2.38;0.25;;;21.80;62.30;;;;;;10351487;28;20144;-88
2022/06/12 20:51:50;;;;;;;0.63;0.10;;;21.60;62.40;;;;;;10348629;28;20053;-88
2022/06/12 20:56:52;;;;;;;0.68;0.13;;;21.60;62.00;;;;;;10347181;28;20056;-87
2022/06/12 21:01:54;;;;;;;2.00;0.28;;;21.50;62.50;;;;;;10328812;28;20050;-86
2022/06/12 21:06:56;;;;;;;3.17;0.20;;;21.30;62.70;;;;;;10347723;28;20105;-86
2022/06/12 21:12:01;;;;;;;2.17;0.45;;;21.20;62.70;;;;;;10346772;28;20042;-86
2022/06/12 21:17:03;;;;;;;4.65;0.20;;;21.10;63.10;;;;;;10346124;28;20457;-86
2022/06/12 21:22:06;;;;;;;1.38;0.20;;;21.00;63.80;;;;;;10343550;28;20046;-89
2022/06/12 21:27:09;;;;;;;2.15;0.30;;;20.80;64.40;;;;;;10366249;28;20492;-92
2022/06/12 21:32:11;;;;;;;4.38;0.40;;;20.70;64.80;;;;;;10345201;28;20053;-88
2022/06/12 21:37:14;;;;;;;4.32;0.50;;;20.60;65.20;;;;;;10313171;28;20133;-88
2022/06/12 21:42:18;;;;;;;2.38;0.10;;;20.40;66.10;;;;;;10337063;28;20061;-87
2022/06/12 21:47:20;;;;;;;2.17;0.22;;;20.20;66.40;;;;;;10331955;28;20049;-87
2022/06/12 21:57:43;;;;;;;2.38;0.20;;;20.10;67.40;;;;;;10344235;28;20050;-87
2022/06/12 22:02:46;;;;;;;2.67;0.28;;;19.90;67.90;;;;;;10344329;28;20469;-87
2022/06/12 22:07:48;;;;;;;3.95;0.20;;;19.90;68.50;;;;;;10287118;28;20060;-88
2022/06/12 22:12:49;;;;;;;3.25;0.28;;;19.80;69.00;;;;;;10331140;28;20049;-88
2022/06/12 22:17:51;;;;;;;3.22;0.30;;;19.60;69.20;;;;;;10357224;28;20158;-88
2022/06/12 22:22:54;;;;;;;1.92;0.20;;;19.60;69.80;;;;;;10348311;28;20050;-88
2022/06/12 22:27:56;;;;;;;6.60;0.30;;;19.50;70.40;;;;;;10273791;28;20064;-88
2022/06/12 22:33:00;;;;;;;1.60;0.20;;;19.40;70.90;;;;;;10332996;28;20041;-88
2022/06/12 22:38:02;;;;;;;2.25;0.40;;;19.40;71.40;;;;;;10369002;28;20049;-88
2022/06/12 22:43:04;;;;;;;1.05;0.20;;;19.30;71.30;;;;;;10315176;28;20120;-88
2022/06/12 22:48:06;;;;;;;1.17;0.30;;;19.40;71.50;;;;;;10338133;28;20560;-88
2022/06/12 22:53:08;;;;;;;3.85;0.30;;;19.30;71.80;;;;;;10355769;28;20137;-88
2022/06/12 22:58:10;;;;;;;1.38;0.20;;;19.30;72.30;;;;;;10334212;28;20527;-88
2022/06/12 23:03:13;;;;;;;3.85;0.30;;;19.30;72.70;;;;;;10345782;28;20049;-88
2022/06/12 23:08:15;;;;;;;2.75;0.30;;;19.20;73.20;;;;;;10361423;28;20069;-88
2022/06/12 23:13:17;;;;;;;4.13;0.57;;;19.20;73.50;;;;;;10357327;28;20566;-88
2022/06/12 23:18:18;;;;;;;2.88;0.22;;;19.20;73.90;;;;;;10344359;28;20042;-88
2022/06/12 23:23:26;;;;;;;1.35;0.25;;;19.10;74.30;;;;;;10334424;28;20042;-88
2022/06/12 23:28:31;;;;;;;2.92;0.30;;;19.10;74.80;;;;;;10334923;28;20069;-89
2022/06/12 23:33:34;;;;;;;5.45;0.40;;;19.00;76.00;;;;;;10352956;28;20052;-87
2022/06/12 23:38:36;;;;;;;3.03;0.40;;;19.00;75.70;;;;;;10336928;28;20052;-87
2022/06/12 23:43:40;;;;;;;2.30;0.43;;;18.80;76.40;;;;;;10344600;28;20374;-87
2022/06/12 23:48:45;;;;;;;2.92;0.30;;;18.80;76.70;;;;;;10365251;28;20065;-87
2022/06/12 23:53:47;;;;;;;2.10;0.20;;;18.60;77.60;;;;;;10347291;28;20054;-87
2022/06/12 23:58:50;;;;;;;2.22;0.60;;;18.60;78.40;;;;;;10339402;28;20046;-87
